createdAt,value
2022-11-13T00:01:17.768Z,44.57
2022-11-13T00:03:46.121Z,44.93
2022-11-13T00:06:14.396Z,45.37
2022-11-13T00:08:42.526Z,47.83
2022-11-13T00:11:11.585Z,40.93
2022-11-13T00:13:39.727Z,42.43
2022-11-13T00:16:09.323Z,43.63
2022-11-13T00:18:39.019Z,42.13
2022-11-13T00:21:07.811Z,40.33
2022-11-13T00:23:36.687Z,46.03
2022-11-13T00:26:06.429Z,40.10
2022-11-13T00:28:34.534Z,41.67
2022-11-13T00:31:02.905Z,42.20
2022-11-13T00:34:02.116Z,42.70
2022-11-13T00:36:25.788Z,37.40
2022-11-13T00:38:54.542Z,40.33
2022-11-13T00:41:22.778Z,36.17
2022-11-13T00:43:50.920Z,38.50
2022-11-13T00:46:19.079Z,40.10
2022-11-13T00:48:47.327Z,41.07
2022-11-13T00:51:15.493Z,40.13
2022-11-13T00:53:45.008Z,38.83
2022-11-13T00:56:13.140Z,37.63
2022-11-13T00:58:41.291Z,34.33
2022-11-13T01:01:11.409Z,36.50
2022-11-13T01:03:39.734Z,41.00
2022-11-13T01:06:14.668Z,39.60
2022-11-13T01:08:44.429Z,35.63
2022-11-13T01:11:13.121Z,33.47
2022-11-13T01:13:41.480Z,37.33
2022-11-13T01:16:10.823Z,36.53
2022-11-13T01:18:39.073Z,33.73
2022-11-13T01:21:07.554Z,32.60
2022-11-13T01:23:35.842Z,35.93
2022-11-13T01:26:13.179Z,33.77
2022-11-13T01:28:43.562Z,32.40
2022-11-13T01:31:13.025Z,31.67
2022-11-13T01:33:43.806Z,32.67
2022-11-13T01:36:13.495Z,32.57
2022-11-13T01:38:41.699Z,36.17
2022-11-13T01:41:12.251Z,33.77
2022-11-13T01:43:40.478Z,32.90
2022-11-13T01:46:17.827Z,32.27
2022-11-13T01:48:47.879Z,32.60
2022-11-13T01:51:17.795Z,31.00
2022-11-13T01:53:46.632Z,33.00
2022-11-13T01:56:16.371Z,32.80
2022-11-13T01:58:45.401Z,33.87
2022-11-13T02:01:13.480Z,35.97
2022-11-13T02:03:41.666Z,30.33
2022-11-13T02:06:09.775Z,30.40
2022-11-13T02:08:38.049Z,33.50
2022-11-13T02:11:06.303Z,33.13
2022-11-13T02:13:37.985Z,35.83
2022-11-13T02:16:07.347Z,37.73
2022-11-13T02:18:35.500Z,39.10
2022-11-13T02:21:07.475Z,37.97
2022-11-13T02:23:38.892Z,39.53
2022-11-13T02:26:08.565Z,44.47
2022-11-13T02:28:36.781Z,43.90
2022-11-13T02:31:09.749Z,44.67
2022-11-13T02:33:37.942Z,42.60
2022-11-13T02:36:07.040Z,37.93
2022-11-13T02:38:35.465Z,43.40
2022-11-13T02:41:03.559Z,43.20
2022-11-13T02:43:33.238Z,39.40
2022-11-13T02:46:01.332Z,49.17
2022-11-13T02:48:29.839Z,44.90
2022-11-13T02:50:58.166Z,41.37
2022-11-13T02:53:26.350Z,40.10
2022-11-13T02:55:54.576Z,43.43
2022-11-13T02:58:22.729Z,44.23
2022-11-13T03:00:52.355Z,40.03
2022-11-13T03:03:41.075Z,38.90
2022-11-13T03:06:08.921Z,41.87
2022-11-13T03:08:37.533Z,43.13
2022-11-13T03:11:08.975Z,41.23
2022-11-13T03:13:37.152Z,40.77
2022-11-13T03:16:11.264Z,36.40
2022-11-13T03:18:39.445Z,36.83
2022-11-13T03:21:08.914Z,33.67
2022-11-13T03:23:37.033Z,33.13
2022-11-13T03:26:06.565Z,32.37
2022-11-13T03:28:36.271Z,34.07
2022-11-13T03:31:04.752Z,35.10
2022-11-13T03:33:34.360Z,34.20
2022-11-13T03:36:02.440Z,33.53
2022-11-13T03:38:31.006Z,32.83
2022-11-13T03:40:59.506Z,35.10
2022-11-13T03:43:27.690Z,33.40
2022-11-13T03:45:55.927Z,34.17
2022-11-13T03:48:24.172Z,34.90
2022-11-13T03:50:54.754Z,35.03
2022-11-13T03:53:22.980Z,36.30
2022-11-13T03:55:51.089Z,36.00
2022-11-13T03:58:19.418Z,34.80
2022-11-13T04:00:47.629Z,34.87
2022-11-13T04:03:15.808Z,34.50
2022-11-13T04:05:44.049Z,32.57
2022-11-13T04:08:13.582Z,32.00
2022-11-13T04:10:41.733Z,31.43
2022-11-13T04:13:09.933Z,34.63
2022-11-13T04:15:38.144Z,32.97
2022-11-13T04:18:06.671Z,33.43
2022-11-13T04:20:34.830Z,34.93
2022-11-13T04:23:07.896Z,33.47
2022-11-13T04:25:37.363Z,33.47
2022-11-13T04:28:05.945Z,32.67
2022-11-13T04:30:34.178Z,30.77
2022-11-13T04:33:02.397Z,33.50
2022-11-13T04:35:30.725Z,33.97
2022-11-13T04:37:58.935Z,35.53
2022-11-13T04:40:27.044Z,34.83
2022-11-13T04:42:55.663Z,33.40
2022-11-13T04:45:24.795Z,35.63
2022-11-13T04:47:53.025Z,31.67
2022-11-13T04:50:21.215Z,36.03
2022-11-13T04:52:49.513Z,36.00
2022-11-13T04:55:17.744Z,36.17
2022-11-13T04:57:45.977Z,35.07
2022-11-13T05:00:16.305Z,36.73
2022-11-13T05:02:44.583Z,35.80
2022-11-13T05:05:12.909Z,38.13
2022-11-13T05:07:42.719Z,40.47
2022-11-13T05:10:11.331Z,42.33
2022-11-13T05:12:39.510Z,41.57
2022-11-13T05:15:08.890Z,42.33
2022-11-13T05:17:38.643Z,42.13
2022-11-13T05:20:07.933Z,41.83
2022-11-13T05:22:36.103Z,41.43
2022-11-13T05:25:04.380Z,43.37
2022-11-13T05:27:32.616Z,41.03
2022-11-13T05:30:00.817Z,42.70
2022-11-13T05:32:28.896Z,41.47
2022-11-13T05:34:58.403Z,44.60
2022-11-13T05:37:26.478Z,44.20
2022-11-13T05:39:54.594Z,43.87
2022-11-13T05:42:22.702Z,44.67
2022-11-13T05:44:50.839Z,46.07
2022-11-13T05:47:19.280Z,43.90
2022-11-13T05:49:47.432Z,43.90
2022-11-13T05:52:16.970Z,44.63
2022-11-13T05:54:45.218Z,43.83
2022-11-13T05:57:13.332Z,41.20
2022-11-13T05:59:41.753Z,42.73
2022-11-13T06:02:10.008Z,42.73
2022-11-13T06:04:38.356Z,42.50
2022-11-13T06:07:06.504Z,44.70
2022-11-13T06:09:36.111Z,43.27
2022-11-13T06:12:04.377Z,43.53
2022-11-13T06:14:32.493Z,44.93
2022-11-13T06:17:00.642Z,40.20
2022-11-13T06:19:28.951Z,42.03
2022-11-13T06:21:57.298Z,44.60
2022-11-13T06:24:25.795Z,41.50
2022-11-13T06:26:55.582Z,41.77
2022-11-13T06:29:23.719Z,36.03
2022-11-13T06:31:51.863Z,36.63
2022-11-13T06:34:20.218Z,39.80
2022-11-13T06:36:48.351Z,39.80
2022-11-13T06:39:16.592Z,36.43
2022-11-13T06:41:44.733Z,40.27
2022-11-13T06:44:14.295Z,41.33
2022-11-13T06:46:42.416Z,39.60
2022-11-13T06:49:10.647Z,38.67
2022-11-13T06:51:39.673Z,43.03
2022-11-13T06:54:07.884Z,36.23
2022-11-13T06:56:36.050Z,38.33
2022-11-13T06:59:08.277Z,36.63
2022-11-13T07:01:38.354Z,48.27
2022-11-13T07:04:06.546Z,40.87
2022-11-13T07:06:40.041Z,44.20
2022-11-13T07:09:08.623Z,37.60
2022-11-13T07:11:36.853Z,39.43
2022-11-13T07:14:06.718Z,37.67
2022-11-13T07:16:56.314Z,35.20
2022-11-13T07:19:24.356Z,37.07
2022-11-13T07:21:52.524Z,40.53
2022-11-13T07:24:20.616Z,38.20
2022-11-13T07:26:48.772Z,35.23
2022-11-13T07:29:17.022Z,34.10
2022-11-13T07:31:45.071Z,37.30
2022-11-13T07:34:14.865Z,39.47
2022-11-13T07:36:44.558Z,39.80
2022-11-13T07:39:12.731Z,40.67
2022-11-13T07:41:40.887Z,42.83
2022-11-13T07:44:09.943Z,42.47
2022-11-13T07:46:39.535Z,41.07
2022-11-13T07:49:07.847Z,39.33
2022-11-13T07:51:35.987Z,35.27
2022-11-13T07:54:05.985Z,38.13
2022-11-13T07:56:34.363Z,38.37
2022-11-13T07:59:02.577Z,34.87
2022-11-13T08:01:30.734Z,36.73
2022-11-13T08:03:58.905Z,36.23
2022-11-13T08:06:28.164Z,36.40
2022-11-13T08:08:56.282Z,35.17
2022-11-13T08:11:25.791Z,33.67
2022-11-13T08:13:54.028Z,34.20
2022-11-13T08:16:23.604Z,31.47
2022-11-13T08:18:52.125Z,30.47
2022-11-13T08:21:21.459Z,29.23
2022-11-13T08:23:50.457Z,31.63
2022-11-13T08:26:18.857Z,30.13
2022-11-13T08:28:48.604Z,28.57
2022-11-13T08:31:17.375Z,26.53
2022-11-13T08:33:45.518Z,27.93
2022-11-13T08:36:13.670Z,28.77
2022-11-13T08:38:41.933Z,27.77
2022-11-13T08:41:10.184Z,26.30
2022-11-13T08:43:38.285Z,28.53
2022-11-13T08:46:08.350Z,28.90
2022-11-13T08:48:37.765Z,27.50
2022-11-13T08:51:06.262Z,28.93
2022-11-13T08:53:34.502Z,28.23
2022-11-13T08:56:03.136Z,28.23
2022-11-13T08:58:31.612Z,27.07
2022-11-13T09:01:02.907Z,26.43
2022-11-13T09:03:32.530Z,28.97
2022-11-13T09:06:00.718Z,29.70
2022-11-13T09:08:32.120Z,28.90
2022-11-13T09:11:04.171Z,29.80
2022-11-13T09:13:32.484Z,29.40
2022-11-13T09:16:00.731Z,27.73
2022-11-13T09:18:29.415Z,28.20
2022-11-13T09:21:02.148Z,28.63
2022-11-13T09:23:30.423Z,27.70
2022-11-13T09:25:58.730Z,27.10
2022-11-13T09:28:27.465Z,27.60
2022-11-13T09:30:55.889Z,28.00
2022-11-13T09:33:24.013Z,27.07
2022-11-13T09:35:52.846Z,26.97
2022-11-13T09:38:22.447Z,28.53
2022-11-13T09:40:52.266Z,27.33
2022-11-13T09:43:27.783Z,27.47
2022-11-13T09:45:57.770Z,26.27
2022-11-13T09:48:29.407Z,26.10
2022-11-13T09:50:57.812Z,24.47
2022-11-13T09:53:27.866Z,25.30
2022-11-13T09:55:59.216Z,25.37
2022-11-13T09:58:30.146Z,24.83
2022-11-13T10:00:59.977Z,25.87
2022-11-13T10:03:59.309Z,25.13
2022-11-13T10:06:24.701Z,25.37
2022-11-13T10:08:57.278Z,24.60
2022-11-13T10:11:31.226Z,24.97
2022-11-13T10:14:01.040Z,23.23
2022-11-13T10:16:32.530Z,22.57
2022-11-13T10:19:06.631Z,23.23
2022-11-13T10:21:36.840Z,24.07
2022-11-13T10:24:14.535Z,24.13
2022-11-13T10:26:42.801Z,24.23
2022-11-13T10:29:13.095Z,24.57
2022-11-13T10:31:45.623Z,23.50
2022-11-13T10:34:14.077Z,25.63
2022-11-13T10:36:45.943Z,25.60
2022-11-13T10:39:15.511Z,23.90
2022-11-13T10:41:50.311Z,24.63
2022-11-13T10:44:30.594Z,25.77
2022-11-13T10:47:06.920Z,23.30
2022-11-13T10:49:35.162Z,29.20
2022-11-13T10:52:08.428Z,28.67
2022-11-13T10:54:40.623Z,32.57
2022-11-13T10:57:26.505Z,24.97
2022-11-13T10:59:54.994Z,27.23
2022-11-13T11:02:24.155Z,26.17
2022-11-13T11:05:02.800Z,27.23
2022-11-13T11:07:31.076Z,25.13
2022-11-13T11:10:00.567Z,26.60
2022-11-13T11:12:31.127Z,25.10
2022-11-13T11:15:07.587Z,24.23
2022-11-13T11:17:43.317Z,23.53
2022-11-13T11:20:22.154Z,24.27
2022-11-13T11:22:52.568Z,25.23
2022-11-13T11:25:31.264Z,24.40
2022-11-13T11:28:02.138Z,25.70
2022-11-13T11:30:33.337Z,25.23
2022-11-13T11:33:05.032Z,26.63
2022-11-13T11:35:38.893Z,25.37
2022-11-13T11:38:11.600Z,25.83
2022-11-13T11:40:42.753Z,26.27
2022-11-13T11:43:17.525Z,27.07
2022-11-13T11:45:46.206Z,25.93
2022-11-13T11:48:15.481Z,25.83
2022-11-13T11:50:47.314Z,27.73
2022-11-13T11:53:17.569Z,25.97
2022-11-13T11:55:57.228Z,26.90
2022-11-13T11:58:36.385Z,26.53
2022-11-13T12:01:06.761Z,28.30
2022-11-13T12:03:52.526Z,26.33
2022-11-13T12:06:23.794Z,27.30
2022-11-13T12:08:55.332Z,26.97
2022-11-13T12:11:28.482Z,25.63
2022-11-13T12:14:03.653Z,27.37
2022-11-13T12:16:33.477Z,28.23
2022-11-13T12:19:04.799Z,24.30
2022-11-13T12:21:48.354Z,23.43
2022-11-13T12:24:25.152Z,25.40
2022-11-13T12:26:59.050Z,26.47
2022-11-13T12:29:35.368Z,26.10
2022-11-13T12:32:09.544Z,26.67
2022-11-13T12:34:39.197Z,25.93
2022-11-13T12:37:14.626Z,26.13
2022-11-13T12:39:45.712Z,25.53
2022-11-13T12:42:21.164Z,24.93
2022-11-13T12:44:54.949Z,24.50
2022-11-13T12:47:23.320Z,24.77
2022-11-13T12:50:00.608Z,26.23
2022-11-13T12:52:28.875Z,24.87
2022-11-13T12:55:06.077Z,24.43
2022-11-13T12:57:35.816Z,25.53
2022-11-13T13:00:21.593Z,23.67
2022-11-13T13:03:03.762Z,24.97
2022-11-13T13:05:38.961Z,24.73
2022-11-13T13:08:47.307Z,24.23
2022-11-13T13:11:18.341Z,27.40
2022-11-13T13:13:50.939Z,24.53
2022-11-13T13:16:23.789Z,24.47
2022-11-13T13:18:52.038Z,23.10
2022-11-13T13:21:20.988Z,25.47
2022-11-13T13:23:49.840Z,26.17
2022-11-13T13:26:19.814Z,25.50
2022-11-13T13:28:51.343Z,29.03
2022-11-13T13:31:30.938Z,26.10
2022-11-13T13:34:05.609Z,28.47
2022-11-13T13:36:39.043Z,28.17
2022-11-13T13:39:15.462Z,29.63
2022-11-13T13:41:57.277Z,28.63
2022-11-13T13:44:40.841Z,30.87
2022-11-13T13:47:13.047Z,31.37
2022-11-13T13:49:41.138Z,32.57
2022-11-13T13:52:13.277Z,31.37
2022-11-13T13:54:41.686Z,30.33
2022-11-13T13:57:12.414Z,31.93
2022-11-13T13:59:43.488Z,32.07
2022-11-13T14:02:16.644Z,32.20
2022-11-13T14:04:47.066Z,33.00
2022-11-13T14:07:23.461Z,32.93
2022-11-13T14:09:51.744Z,30.27
2022-11-13T14:12:20.799Z,31.80
2022-11-13T14:14:50.267Z,32.97
2022-11-13T14:17:23.976Z,33.87
2022-11-13T14:19:52.519Z,31.10
2022-11-13T14:22:20.671Z,32.43
2022-11-13T14:24:50.077Z,34.20
2022-11-13T14:27:19.994Z,35.70
2022-11-13T14:29:50.100Z,34.27
2022-11-13T14:32:22.334Z,34.77
2022-11-13T14:34:50.755Z,34.50
2022-11-13T14:37:23.865Z,36.53
2022-11-13T14:39:51.981Z,37.83
2022-11-13T14:42:21.488Z,35.27
2022-11-13T14:44:50.994Z,35.80
2022-11-13T14:47:23.928Z,36.63
2022-11-13T14:49:52.024Z,36.87
2022-11-13T14:52:24.458Z,35.27
2022-11-13T14:55:18.044Z,35.43
2022-11-13T14:57:49.795Z,42.10
2022-11-13T15:00:20.413Z,41.63
2022-11-13T15:02:48.569Z,48.30
2022-11-13T15:05:16.716Z,45.73
2022-11-13T15:07:45.693Z,40.40
2022-11-13T15:10:14.802Z,38.27
2022-11-13T15:12:43.002Z,39.07
2022-11-13T15:15:14.775Z,39.33
2022-11-13T15:17:44.567Z,38.90
2022-11-13T15:20:15.908Z,42.60
2022-11-13T15:22:44.320Z,43.37
2022-11-13T15:25:15.915Z,45.67
2022-11-13T15:27:44.245Z,46.10
2022-11-13T15:30:13.172Z,43.90
2022-11-13T15:32:41.400Z,47.47
2022-11-13T15:35:18.867Z,45.83
2022-11-13T15:37:47.188Z,46.03
2022-11-13T15:40:15.562Z,44.07
2022-11-13T15:42:44.077Z,47.00
2022-11-13T15:45:15.094Z,48.13
2022-11-13T15:47:43.264Z,47.63
2022-11-13T15:50:14.336Z,48.37
2022-11-13T15:52:46.482Z,48.27
2022-11-13T15:55:21.660Z,46.67
2022-11-13T15:57:49.769Z,48.33
2022-11-13T16:00:21.312Z,49.20
2022-11-13T16:02:50.745Z,48.17
2022-11-13T16:05:21.534Z,48.33
2022-11-13T16:07:49.733Z,46.00
2022-11-13T16:10:17.819Z,46.07
2022-11-13T16:12:46.268Z,44.27
2022-11-13T16:15:15.785Z,44.63
2022-11-13T16:17:45.896Z,42.07
2022-11-13T16:20:15.571Z,41.87
2022-11-13T16:22:45.099Z,42.60
2022-11-13T16:25:14.379Z,45.60
2022-11-13T16:27:42.542Z,44.37
2022-11-13T16:30:15.618Z,45.20
2022-11-13T16:32:43.896Z,43.70
2022-11-13T16:35:15.784Z,43.63
2022-11-13T16:37:45.400Z,45.53
2022-11-13T16:40:23.882Z,44.07
2022-11-13T16:42:52.421Z,48.03
2022-11-13T16:45:20.930Z,45.50
2022-11-13T16:47:50.703Z,45.63
2022-11-13T16:50:19.770Z,46.80
2022-11-13T16:52:49.394Z,44.83
2022-11-13T16:55:17.520Z,48.07
2022-11-13T16:57:45.785Z,44.90
2022-11-13T17:00:16.203Z,45.77
2022-11-13T17:02:44.960Z,45.53
2022-11-13T17:05:14.311Z,50.77
2022-11-13T17:07:42.563Z,48.50
2022-11-13T17:10:30.902Z,48.93
2022-11-13T17:13:00.440Z,47.80
2022-11-13T17:15:28.679Z,48.27
2022-11-13T17:17:58.343Z,48.07
2022-11-13T17:20:26.748Z,46.60
2022-11-13T17:22:55.169Z,46.63
2022-11-13T17:25:26.932Z,47.17
2022-11-13T17:27:55.633Z,48.73
2022-11-13T17:30:23.825Z,49.27
2022-11-13T17:32:52.032Z,48.17
2022-11-13T17:35:20.240Z,51.03
2022-11-13T17:37:48.581Z,49.63
2022-11-13T17:40:17.345Z,49.70
2022-11-13T17:42:48.075Z,48.17
2022-11-13T17:45:16.382Z,47.23
2022-11-13T17:47:44.971Z,50.60
2022-11-13T17:50:13.097Z,51.33
2022-11-13T17:52:41.303Z,54.43
2022-11-13T17:55:11.956Z,52.37
2022-11-13T17:57:40.152Z,52.63
2022-11-13T18:00:11.269Z,54.10
2022-11-13T18:02:39.697Z,53.97
2022-11-13T18:05:10.000Z,52.90
2022-11-13T18:07:38.506Z,55.10
2022-11-13T18:10:07.574Z,53.70
2022-11-13T18:12:35.920Z,53.30
2022-11-13T18:15:04.129Z,53.73
2022-11-13T18:17:33.677Z,51.83
2022-11-13T18:20:02.468Z,57.10
2022-11-13T18:22:31.630Z,62.47
2022-11-13T18:25:01.549Z,64.47
2022-11-13T18:27:29.800Z,70.13
2022-11-13T18:29:57.924Z,67.60
2022-11-13T18:32:26.162Z,62.23
2022-11-13T18:34:55.714Z,52.73
2022-11-13T18:37:23.876Z,51.80
2022-11-13T18:39:52.053Z,50.37
2022-11-13T18:42:20.125Z,47.17
2022-11-13T18:44:48.290Z,51.60
2022-11-13T18:47:16.375Z,50.10
2022-11-13T18:49:44.549Z,48.37
2022-11-13T18:52:14.119Z,51.83
2022-11-13T18:54:42.226Z,52.87
2022-11-13T18:57:10.427Z,53.23
2022-11-13T18:59:38.607Z,50.60
2022-11-13T19:02:06.874Z,54.40
2022-11-13T19:04:36.476Z,57.27
2022-11-13T19:07:04.621Z,53.50
2022-11-13T19:09:34.281Z,56.93
2022-11-13T19:12:02.388Z,55.90
2022-11-13T19:14:30.534Z,56.50
2022-11-13T19:16:58.703Z,56.57
2022-11-13T19:19:26.852Z,54.67
2022-11-13T19:21:55.047Z,55.83
2022-11-13T19:24:23.237Z,62.63
2022-11-13T19:26:53.098Z,52.53
2022-11-13T19:29:21.375Z,60.27
2022-11-13T19:31:50.089Z,52.10
2022-11-13T19:34:18.528Z,57.37
2022-11-13T19:36:47.985Z,51.00
2022-11-13T19:39:16.935Z,53.60
2022-11-13T19:41:45.019Z,52.83
2022-11-13T19:44:14.735Z,50.90
2022-11-13T19:46:45.053Z,51.10
2022-11-13T19:49:13.155Z,53.17
2022-11-13T19:51:41.237Z,55.10
2022-11-13T19:54:09.414Z,49.20
2022-11-13T19:56:37.506Z,52.80
2022-11-13T19:59:05.617Z,50.57
2022-11-13T20:01:35.780Z,51.30
2022-11-13T20:04:04.442Z,50.43
2022-11-13T20:06:33.488Z,44.97
2022-11-13T20:09:01.954Z,52.17
2022-11-13T20:11:30.098Z,47.57
2022-11-13T20:13:58.471Z,49.63
2022-11-13T20:16:26.585Z,48.17
2022-11-13T20:18:57.530Z,48.17
2022-11-13T20:21:25.798Z,50.30
2022-11-13T20:23:54.512Z,50.30
2022-11-13T20:26:22.730Z,46.40
2022-11-13T20:28:50.930Z,45.83
2022-11-13T20:31:20.524Z,50.33
2022-11-13T20:33:48.749Z,46.23
2022-11-13T20:36:18.411Z,47.27
2022-11-13T20:38:50.591Z,52.00
2022-11-13T20:41:20.680Z,53.57
2022-11-13T20:43:49.030Z,50.17
2022-11-13T20:46:18.359Z,53.33
2022-11-13T20:48:46.824Z,55.23
2022-11-13T20:51:15.600Z,53.97
2022-11-13T20:53:45.275Z,55.87
2022-11-13T20:56:13.378Z,50.17
2022-11-13T20:58:41.490Z,49.33
2022-11-13T21:01:10.917Z,49.00
2022-11-13T21:03:41.276Z,48.73
2022-11-13T21:06:10.081Z,43.20
2022-11-13T21:08:38.303Z,38.63
2022-11-13T21:11:08.276Z,36.50
2022-11-13T21:13:36.428Z,35.37
2022-11-13T21:16:06.829Z,37.90
2022-11-13T21:18:35.048Z,33.80
2022-11-13T21:21:07.873Z,35.73
2022-11-13T21:23:36.045Z,37.97
2022-11-13T21:26:04.802Z,38.37
2022-11-13T21:28:34.383Z,37.47
2022-11-13T21:31:03.864Z,36.37
2022-11-13T21:33:32.213Z,39.43
2022-11-13T21:36:05.393Z,37.73
2022-11-13T21:38:33.917Z,39.00
2022-11-13T21:41:19.454Z,36.27
2022-11-13T21:43:49.046Z,35.63
2022-11-13T21:46:17.139Z,39.37
2022-11-13T21:48:45.370Z,42.13
2022-11-13T21:51:13.613Z,39.03
2022-11-13T21:53:42.899Z,40.37
2022-11-13T21:56:15.457Z,36.67
2022-11-13T21:58:44.298Z,47.27
2022-11-13T22:01:13.812Z,46.00
2022-11-13T22:03:41.931Z,49.80
2022-11-13T22:06:14.326Z,56.07
2022-11-13T22:08:42.489Z,49.10
2022-11-13T22:11:10.574Z,46.50
2022-11-13T22:13:38.802Z,45.20
2022-11-13T22:16:07.673Z,44.77
2022-11-13T22:18:37.126Z,43.33
2022-11-13T22:21:06.101Z,39.23
2022-11-13T22:23:34.384Z,43.60
2022-11-13T22:26:03.398Z,43.33
2022-11-13T22:28:32.106Z,39.73
2022-11-13T22:31:00.297Z,40.17
2022-11-13T22:33:28.729Z,41.60
2022-11-13T22:36:03.225Z,42.33
2022-11-13T22:38:31.613Z,40.17
2022-11-13T22:41:04.217Z,45.63
2022-11-13T22:43:36.035Z,41.53
2022-11-13T22:46:05.387Z,40.63
2022-11-13T22:48:33.710Z,44.17
2022-11-13T22:51:07.000Z,46.60
2022-11-13T22:53:35.250Z,47.13
2022-11-13T22:56:04.758Z,49.00
2022-11-13T22:58:32.846Z,44.27
2022-11-13T23:01:07.707Z,46.93
2022-11-13T23:03:38.193Z,52.93
2022-11-13T23:06:07.998Z,48.53
2022-11-13T23:08:38.912Z,50.53
2022-11-13T23:11:07.581Z,48.37
2022-11-13T23:13:35.743Z,53.33
2022-11-13T23:16:03.855Z,44.07
2022-11-13T23:18:32.634Z,48.60
2022-11-13T23:21:00.853Z,52.00
2022-11-13T23:23:30.335Z,47.83
2022-11-13T23:25:58.464Z,45.20
2022-11-13T23:28:26.856Z,47.13
2022-11-13T23:30:55.620Z,46.80
2022-11-13T23:33:23.810Z,44.40
2022-11-13T23:35:51.928Z,44.70
2022-11-13T23:38:20.717Z,45.97
2022-11-13T23:40:55.048Z,47.80
2022-11-13T23:43:23.567Z,44.57
2022-11-13T23:45:54.910Z,35.17
2022-11-13T23:48:23.081Z,39.67
2022-11-13T23:50:51.169Z,39.37
2022-11-13T23:53:19.334Z,39.50
2022-11-13T23:55:47.441Z,39.20
2022-11-13T23:58:17.301Z,38.90
